Terminal Aerodrome Forecast
Issued by NWS

Home | Current Version | Previous Version | Text Only | Print | Product List | Glossary On
Versions: 1 2 3 4 5 6 7 8 9 10 11 12 13
394
FTUS45 KABQ 262321
TAFLVS
TAF
KLVS 262321Z 2700/2724 25012G20KT P6SM FEW100
     FM270200 21009KT P6SM SCT100
     FM271500 23016G26KT P6SM SCT100
     FM271900 24028G38KT P6SM BKN100=

USA.gov is the U.S. government's official web portal to all federal, state and local government web resources and services.